createdAt,value
2023-03-26T00:00:55.816Z,94458.97
2023-03-26T00:03:22.188Z,94447.03
2023-03-26T00:05:48.672Z,94460.81
2023-03-26T00:08:15.040Z,94452.09
2023-03-26T00:10:42.304Z,94461.94
2023-03-26T00:13:08.732Z,94457.53
2023-03-26T00:15:35.343Z,94449.13
2023-03-26T00:18:04.157Z,94454.72
2023-03-26T00:20:30.807Z,94453.72
2023-03-26T00:22:58.198Z,94457.00
2023-03-26T00:25:24.592Z,94454.06
2023-03-26T00:27:50.941Z,94448.47
2023-03-26T00:30:17.385Z,94446.19
2023-03-26T00:32:46.068Z,94437.81
2023-03-26T00:35:20.615Z,94455.84
2023-03-26T00:37:47.990Z,94459.97
2023-03-26T00:40:14.478Z,94450.94
2023-03-26T00:42:41.106Z,94447.31
2023-03-26T00:45:07.628Z,94444.69
2023-03-26T00:47:34.097Z,94436.97
2023-03-26T00:50:00.459Z,94424.00
2023-03-26T00:52:26.815Z,94421.50
2023-03-26T00:54:54.183Z,94424.13
2023-03-26T00:57:34.940Z,94431.50
2023-03-26T01:00:02.163Z,94431.53
2023-03-26T01:02:28.743Z,94430.69
2023-03-26T01:04:55.191Z,94423.50
2023-03-26T01:07:22.012Z,94425.13
2023-03-26T01:09:48.377Z,94412.97
2023-03-26T01:12:14.720Z,94409.38
2023-03-26T01:14:41.094Z,94392.28
2023-03-26T01:17:07.442Z,94391.78
2023-03-26T01:19:33.953Z,94383.56
2023-03-26T01:22:00.940Z,94364.66
2023-03-26T01:24:27.410Z,94370.22
2023-03-26T01:26:54.738Z,94368.22
2023-03-26T01:29:21.119Z,94364.28
2023-03-26T01:31:47.460Z,94358.34
2023-03-26T01:34:13.883Z,94351.50
2023-03-26T01:36:40.262Z,94353.28
2023-03-26T01:39:06.653Z,94335.13
2023-03-26T01:41:32.997Z,94332.25
2023-03-26T01:43:59.368Z,94335.94
2023-03-26T01:46:26.925Z,94330.63
2023-03-26T01:48:53.487Z,94325.81
2023-03-26T01:51:19.912Z,94325.50
2023-03-26T01:53:46.241Z,94317.41
2023-03-26T01:56:12.654Z,94306.59
2023-03-26T01:58:39.039Z,94304.31
2023-03-26T02:01:05.384Z,94310.19
2023-03-26T02:03:31.892Z,94297.22
2023-03-26T02:05:58.502Z,94286.34
2023-03-26T02:08:24.836Z,94277.31
2023-03-26T02:10:51.165Z,94275.75
2023-03-26T02:13:17.638Z,94275.22
2023-03-26T02:15:44.039Z,94261.56
2023-03-26T02:18:10.404Z,94245.72
2023-03-26T02:20:36.887Z,94246.00
2023-03-26T02:23:03.220Z,94232.47
2023-03-26T02:25:29.580Z,94223.19
2023-03-26T02:27:55.923Z,94214.56
2023-03-26T02:30:22.416Z,94199.25
2023-03-26T02:32:48.851Z,94210.34
2023-03-26T02:35:15.276Z,94202.50
2023-03-26T02:37:41.701Z,94203.69
2023-03-26T02:40:08.104Z,94195.16
2023-03-26T02:42:34.460Z,94196.72
2023-03-26T02:45:00.795Z,94185.22
2023-03-26T02:47:27.538Z,94177.31
2023-03-26T02:49:53.915Z,94177.75
2023-03-26T02:52:20.243Z,94157.47
2023-03-26T02:54:46.682Z,94163.94
2023-03-26T02:57:13.336Z,94155.38
2023-03-26T02:59:39.711Z,94150.25
2023-03-26T03:02:06.094Z,94146.53
2023-03-26T03:04:32.560Z,94143.75
2023-03-26T03:07:00.430Z,94143.69
2023-03-26T03:09:28.841Z,94138.97
2023-03-26T03:11:55.432Z,94135.16
2023-03-26T03:14:21.830Z,94133.91
2023-03-26T03:16:48.769Z,94126.66
2023-03-26T03:19:15.242Z,94128.44
2023-03-26T03:21:41.615Z,94124.53
2023-03-26T03:24:09.431Z,94116.00
2023-03-26T03:26:35.886Z,94117.19
2023-03-26T03:29:02.796Z,94115.25
2023-03-26T03:31:29.193Z,94120.00
2023-03-26T03:33:56.314Z,94117.19
2023-03-26T03:36:22.653Z,94117.03
2023-03-26T03:38:49.040Z,94111.47
2023-03-26T03:41:15.635Z,94113.13
2023-03-26T03:43:44.334Z,94099.56
2023-03-26T03:46:10.731Z,94093.28
2023-03-26T03:48:37.128Z,94087.63
2023-03-26T03:51:03.578Z,94076.66
2023-03-26T03:53:30.437Z,94071.81
2023-03-26T03:55:58.390Z,94070.19
2023-03-26T03:58:24.923Z,94074.69
2023-03-26T04:00:51.423Z,94067.59
2023-03-26T04:03:18.953Z,94064.41
2023-03-26T04:05:59.620Z,94063.53
2023-03-26T04:08:26.333Z,94073.59
2023-03-26T04:10:54.983Z,94068.69
2023-03-26T04:13:21.324Z,94067.09
2023-03-26T04:15:47.735Z,94072.63
2023-03-26T04:18:14.120Z,94061.13
2023-03-26T04:20:40.501Z,94050.44
2023-03-26T04:23:06.934Z,94048.63
2023-03-26T04:25:33.345Z,94044.59
2023-03-26T04:27:59.708Z,94046.16
2023-03-26T04:30:26.095Z,94037.63
2023-03-26T04:32:52.455Z,94023.66
2023-03-26T04:35:18.867Z,94023.13
2023-03-26T04:37:45.316Z,94019.47
2023-03-26T04:40:11.709Z,94019.41
2023-03-26T04:42:38.170Z,94013.72
2023-03-26T04:45:04.597Z,94011.50
2023-03-26T04:47:33.101Z,94005.59
2023-03-26T04:49:59.510Z,94008.84
2023-03-26T04:52:25.904Z,94010.03
2023-03-26T04:54:52.254Z,94006.75
2023-03-26T04:57:21.154Z,94007.53
2023-03-26T04:59:47.487Z,93994.09
2023-03-26T05:02:13.871Z,93990.44
2023-03-26T05:04:40.483Z,93988.63
2023-03-26T05:07:06.875Z,94004.25
2023-03-26T05:09:33.360Z,94002.88
2023-03-26T05:11:59.748Z,94002.88
2023-03-26T05:14:26.362Z,93995.97
2023-03-26T05:16:52.812Z,94002.75
2023-03-26T05:19:19.181Z,94001.19
2023-03-26T05:21:45.765Z,93990.06
2023-03-26T05:24:12.141Z,93982.56
2023-03-26T05:26:38.599Z,93974.84
2023-03-26T05:29:05.311Z,93976.88
2023-03-26T05:31:31.698Z,93974.84
2023-03-26T05:33:58.172Z,93983.78
2023-03-26T05:36:24.618Z,93991.06
2023-03-26T05:38:58.088Z,93986.63
2023-03-26T05:41:24.649Z,93999.28
2023-03-26T05:43:51.110Z,94006.13
2023-03-26T05:46:17.625Z,94017.09
2023-03-26T05:48:43.993Z,93992.91
2023-03-26T05:51:10.416Z,93992.00
2023-03-26T05:53:36.895Z,93985.47
2023-03-26T05:56:04.439Z,93987.88
2023-03-26T05:58:30.765Z,93985.44
2023-03-26T06:00:57.337Z,93969.16
2023-03-26T06:03:23.893Z,93968.53
2023-03-26T06:05:52.685Z,93968.38
2023-03-26T06:08:19.056Z,93964.19
2023-03-26T06:10:45.610Z,93941.06
2023-03-26T06:13:12.380Z,93939.69
2023-03-26T06:15:39.763Z,93941.31
2023-03-26T06:18:07.300Z,93925.66
2023-03-26T06:20:33.798Z,93906.63
2023-03-26T06:23:02.438Z,93907.25
2023-03-26T06:25:28.821Z,93914.16
2023-03-26T06:27:55.568Z,93920.56
2023-03-26T06:30:22.016Z,93946.13
2023-03-26T06:32:48.628Z,93943.97
2023-03-26T06:35:15.424Z,93969.41
2023-03-26T06:37:42.525Z,93968.53
2023-03-26T06:40:09.170Z,93967.97
2023-03-26T06:43:09.669Z,93960.69
2023-03-26T06:45:29.249Z,93954.72
2023-03-26T06:47:56.118Z,93963.69
2023-03-26T06:50:22.581Z,93966.03
2023-03-26T06:52:49.158Z,93976.47
2023-03-26T06:55:15.724Z,93979.44
2023-03-26T06:57:42.119Z,93975.19
2023-03-26T07:00:08.515Z,93978.22
2023-03-26T07:02:34.980Z,93974.69
2023-03-26T07:05:01.617Z,93969.00
2023-03-26T07:07:28.043Z,93960.75
2023-03-26T07:09:54.439Z,93960.69
2023-03-26T07:12:20.780Z,93946.91
2023-03-26T07:14:47.113Z,93943.50
2023-03-26T07:17:13.442Z,93934.41
2023-03-26T07:19:39.806Z,93941.75
2023-03-26T07:22:06.271Z,93923.59
2023-03-26T07:24:32.994Z,93915.63
2023-03-26T07:27:02.194Z,93909.84
2023-03-26T07:29:28.633Z,93906.41
2023-03-26T07:31:55.028Z,93908.97
2023-03-26T07:34:21.496Z,93898.25
2023-03-26T07:36:48.118Z,93908.19
2023-03-26T07:39:14.463Z,93909.75
2023-03-26T07:41:40.837Z,93903.31
2023-03-26T07:44:10.770Z,93884.84
2023-03-26T07:46:37.254Z,93894.66
2023-03-26T07:49:03.899Z,93892.25
2023-03-26T07:51:30.282Z,93897.13
2023-03-26T07:53:56.635Z,93901.31
2023-03-26T07:56:23.115Z,93907.66
2023-03-26T07:58:49.729Z,93904.66
2023-03-26T08:01:17.245Z,93907.50
2023-03-26T08:03:43.945Z,93916.03
2023-03-26T08:06:10.525Z,93928.41
2023-03-26T08:08:36.976Z,93924.34
2023-03-26T08:11:04.258Z,93936.91
2023-03-26T08:13:32.692Z,93936.69
2023-03-26T08:15:59.193Z,93939.19
2023-03-26T08:18:25.702Z,93918.84
2023-03-26T08:20:52.275Z,93909.09
2023-03-26T08:23:18.751Z,93890.44
2023-03-26T08:25:45.140Z,93898.91
2023-03-26T08:28:11.828Z,93921.72
2023-03-26T08:30:38.460Z,93933.47
2023-03-26T08:33:04.878Z,93926.34
2023-03-26T08:35:31.384Z,93927.16
2023-03-26T08:37:57.976Z,93927.00
2023-03-26T08:40:24.500Z,93930.22
2023-03-26T08:42:51.212Z,93926.63
2023-03-26T08:45:17.588Z,93948.41
2023-03-26T08:47:44.104Z,93963.84
2023-03-26T08:50:10.464Z,93959.53
2023-03-26T08:52:39.806Z,93987.00
2023-03-26T08:55:06.634Z,93964.88
2023-03-26T08:57:33.014Z,93967.94
2023-03-26T09:00:01.272Z,93952.69
2023-03-26T09:02:28.950Z,93950.69
2023-03-26T09:04:55.428Z,93942.53
2023-03-26T09:07:21.971Z,93947.84
2023-03-26T09:09:48.341Z,93952.53
2023-03-26T09:12:14.686Z,93949.25
2023-03-26T09:14:41.087Z,93959.22
2023-03-26T09:17:07.443Z,93973.66
2023-03-26T09:19:34.036Z,93972.22
2023-03-26T09:22:00.421Z,93979.34
2023-03-26T09:24:27.917Z,93970.22
2023-03-26T09:26:55.078Z,93984.25
2023-03-26T09:29:21.432Z,93987.31
2023-03-26T09:31:47.849Z,93985.66
2023-03-26T09:34:14.554Z,93976.91
2023-03-26T09:36:40.931Z,93982.41
2023-03-26T09:39:07.476Z,93978.91
2023-03-26T09:41:34.040Z,93967.50
2023-03-26T09:44:02.735Z,93979.28
2023-03-26T09:46:29.071Z,93979.50
2023-03-26T09:48:55.400Z,93988.19
2023-03-26T09:51:21.968Z,93987.19
2023-03-26T09:53:48.415Z,93988.78
2023-03-26T09:56:14.976Z,93977.97
2023-03-26T09:58:41.363Z,93975.78
2023-03-26T10:01:07.728Z,93979.69
2023-03-26T10:03:34.080Z,93977.50
2023-03-26T10:06:00.895Z,93969.19
2023-03-26T10:08:27.942Z,93956.59
2023-03-26T10:10:55.174Z,93963.47
2023-03-26T10:13:21.639Z,93956.75
2023-03-26T10:15:49.215Z,93967.75
2023-03-26T10:18:28.259Z,93960.44
2023-03-26T10:20:56.496Z,93966.13
2023-03-26T10:23:23.075Z,93963.47
2023-03-26T10:25:49.541Z,93977.94
2023-03-26T10:28:15.977Z,93966.13
2023-03-26T10:30:45.319Z,93971.31
2023-03-26T10:33:11.750Z,93977.81
2023-03-26T10:35:38.199Z,93994.00
2023-03-26T10:38:05.118Z,93985.78
2023-03-26T10:40:33.959Z,93973.22
2023-03-26T10:43:00.402Z,93982.81
2023-03-26T10:45:26.843Z,93986.47
2023-03-26T10:47:53.226Z,93967.56
2023-03-26T10:50:22.775Z,93989.25
2023-03-26T10:52:50.214Z,93982.72
2023-03-26T10:55:16.683Z,93992.63
2023-03-26T10:57:43.024Z,93992.19
2023-03-26T11:00:09.420Z,94001.50
2023-03-26T11:02:35.860Z,93999.53
2023-03-26T11:05:02.830Z,94006.16
2023-03-26T11:07:29.381Z,94012.63
2023-03-26T11:09:55.761Z,94014.13
2023-03-26T11:12:26.600Z,94022.41
2023-03-26T11:14:55.061Z,94020.31
2023-03-26T11:17:40.152Z,94011.75
2023-03-26T11:20:07.783Z,94004.69
2023-03-26T11:22:34.309Z,94004.28
2023-03-26T11:25:00.770Z,94006.72
2023-03-26T11:27:27.235Z,94010.13
2023-03-26T11:29:53.707Z,94000.50
2023-03-26T11:32:20.088Z,93995.03
2023-03-26T11:34:46.757Z,94002.03
2023-03-26T11:37:13.300Z,93987.66
2023-03-26T11:39:41.918Z,93989.78
2023-03-26T11:42:08.772Z,93988.09
2023-03-26T11:44:35.113Z,93987.84
2023-03-26T11:47:01.616Z,93980.50
2023-03-26T11:49:30.889Z,93988.88
2023-03-26T11:51:57.505Z,93980.75
2023-03-26T11:54:23.891Z,93968.97
2023-03-26T11:57:05.888Z,93964.19
2023-03-26T11:59:53.282Z,93962.78
2023-03-26T12:02:23.293Z,93941.28
2023-03-26T12:04:49.750Z,93954.53
2023-03-26T12:07:16.261Z,93955.16
2023-03-26T12:09:45.700Z,93967.56
2023-03-26T12:12:12.086Z,93965.69
2023-03-26T12:14:38.559Z,93962.44
2023-03-26T12:17:05.285Z,93962.84
2023-03-26T12:19:31.919Z,93939.22
2023-03-26T12:21:58.323Z,93953.75
2023-03-26T12:24:24.781Z,93960.97
2023-03-26T12:26:51.161Z,93953.31
2023-03-26T12:29:17.756Z,93945.69
2023-03-26T12:31:44.445Z,93927.94
2023-03-26T12:34:10.807Z,93925.34
2023-03-26T12:36:38.179Z,93932.63
2023-03-26T12:40:07.551Z,93928.50
2023-03-26T12:44:42.878Z,93936.16
2023-03-26T12:44:53.522Z,93908.31
2023-03-26T12:47:57.024Z,93921.00
2023-03-26T12:50:09.818Z,93922.38
2023-03-26T12:52:36.442Z,93914.50
2023-03-26T12:55:02.807Z,93906.91
2023-03-26T12:57:38.707Z,93899.69
2023-03-26T13:00:05.129Z,93899.56
2023-03-26T13:02:31.612Z,93909.34
2023-03-26T13:05:05.552Z,93917.59
2023-03-26T13:07:33.266Z,93906.63
2023-03-26T13:10:01.630Z,93926.19
2023-03-26T13:12:28.018Z,93942.97
2023-03-26T13:14:54.399Z,93938.06
2023-03-26T13:17:20.799Z,93922.56
2023-03-26T13:19:47.181Z,93922.50
2023-03-26T13:22:13.744Z,93924.84
2023-03-26T13:24:40.125Z,93935.03
2023-03-26T13:27:06.505Z,93969.09
2023-03-26T13:29:33.057Z,93980.88
2023-03-26T13:31:59.856Z,94019.50
2023-03-26T13:34:29.013Z,93990.28
2023-03-26T13:36:55.441Z,93906.66
2023-03-26T13:39:21.803Z,93938.16
2023-03-26T13:41:48.142Z,93943.28
2023-03-26T13:44:15.013Z,93943.47
2023-03-26T13:46:41.734Z,93923.88
2023-03-26T13:49:08.092Z,93922.44
2023-03-26T13:51:34.485Z,93930.97
2023-03-26T13:54:00.853Z,93938.44
2023-03-26T13:56:27.240Z,93947.16
2023-03-26T13:58:54.708Z,93962.56
2023-03-26T14:01:21.284Z,93952.22
2023-03-26T14:03:48.001Z,93967.81
2023-03-26T14:06:14.885Z,93970.09
2023-03-26T14:08:41.456Z,93963.47
2023-03-26T14:11:08.188Z,93961.47
2023-03-26T14:13:34.601Z,93966.09
2023-03-26T14:16:01.012Z,93960.31
2023-03-26T14:18:28.090Z,93947.34
2023-03-26T14:20:58.565Z,93947.44
2023-03-26T14:23:24.964Z,93957.59
2023-03-26T14:25:51.305Z,93943.00
2023-03-26T14:28:18.740Z,93949.72
2023-03-26T14:30:45.169Z,93942.00
2023-03-26T14:33:14.574Z,93931.13
2023-03-26T14:35:53.526Z,93936.28
2023-03-26T14:38:19.988Z,93937.16
2023-03-26T14:40:46.450Z,93938.19
2023-03-26T14:43:15.178Z,93945.91
2023-03-26T14:45:41.526Z,93949.03
2023-03-26T14:48:09.911Z,93939.59
2023-03-26T14:50:36.765Z,93939.75
2023-03-26T14:53:03.197Z,93954.41
2023-03-26T14:55:29.565Z,93953.59
2023-03-26T14:57:56.272Z,93948.53
2023-03-26T15:00:22.677Z,93946.97
2023-03-26T15:02:49.230Z,93946.59
2023-03-26T15:05:15.932Z,93949.78
2023-03-26T15:07:42.573Z,93945.84
2023-03-26T15:10:08.966Z,93942.38
2023-03-26T15:12:35.433Z,93946.81
2023-03-26T15:15:02.627Z,93942.81
2023-03-26T15:17:31.210Z,93934.38
2023-03-26T15:19:57.659Z,93934.75
2023-03-26T15:22:27.035Z,93935.63
2023-03-26T15:24:53.453Z,93931.91
2023-03-26T15:27:19.881Z,93936.41
2023-03-26T15:32:33.331Z,93934.75
2023-03-26T15:35:00.124Z,93920.78
2023-03-26T15:37:26.982Z,93917.22
2023-03-26T15:39:59.202Z,93913.19
2023-03-26T15:42:26.867Z,93910.81
2023-03-26T15:44:54.402Z,93903.06
2023-03-26T15:47:24.052Z,93902.25
2023-03-26T15:49:50.577Z,93902.41
2023-03-26T15:52:19.010Z,93913.09
2023-03-26T15:54:45.422Z,93912.97
2023-03-26T15:57:11.903Z,93905.94
2023-03-26T15:59:38.323Z,93904.88
2023-03-26T16:02:05.415Z,93901.97
2023-03-26T16:04:33.316Z,93907.56
2023-03-26T16:06:59.930Z,93889.34
2023-03-26T16:09:26.308Z,93879.66
2023-03-26T16:11:53.123Z,93873.41
2023-03-26T16:14:21.495Z,93862.50
2023-03-26T16:16:58.512Z,93869.13
2023-03-26T16:19:24.938Z,93881.75
2023-03-26T16:21:51.482Z,93885.94
2023-03-26T16:24:19.061Z,93886.50
2023-03-26T16:26:45.517Z,93882.84
2023-03-26T16:29:16.530Z,93890.75
2023-03-26T16:31:43.229Z,93897.47
2023-03-26T16:34:10.242Z,93891.59
2023-03-26T16:36:36.775Z,93879.38
2023-03-26T16:39:03.232Z,93880.41
2023-03-26T16:41:31.746Z,93878.50
2023-03-26T16:43:58.158Z,93872.81
2023-03-26T16:46:24.808Z,93883.84
2023-03-26T16:48:51.200Z,93880.16
2023-03-26T16:51:17.588Z,93878.72
2023-03-26T16:53:43.936Z,93883.22
2023-03-26T16:56:10.321Z,93874.84
2023-03-26T16:58:37.099Z,93874.06
2023-03-26T17:01:03.503Z,93865.38
2023-03-26T17:03:29.935Z,93860.38
2023-03-26T17:05:57.011Z,93868.56
2023-03-26T17:08:35.928Z,93877.66
2023-03-26T17:11:03.122Z,93875.59
2023-03-26T17:13:29.604Z,93865.41
2023-03-26T17:15:56.073Z,93867.56
2023-03-26T17:18:22.655Z,93839.97
2023-03-26T17:20:49.286Z,93835.16
2023-03-26T17:23:16.004Z,93855.91
2023-03-26T17:25:43.477Z,93855.00
2023-03-26T17:28:12.651Z,93852.94
2023-03-26T17:30:39.925Z,93850.50
2023-03-26T17:33:09.038Z,93840.88
2023-03-26T17:35:38.698Z,93832.22
2023-03-26T17:38:05.114Z,93833.94
2023-03-26T17:40:31.557Z,93834.16
2023-03-26T17:43:16.581Z,93841.31
2023-03-26T17:48:28.625Z,93848.13
2023-03-26T17:50:56.729Z,93851.00
2023-03-26T17:53:23.362Z,93833.59
2023-03-26T17:55:51.221Z,93828.47
2023-03-26T17:58:19.835Z,93827.47
2023-03-26T18:00:46.292Z,93814.31
2023-03-26T18:03:15.151Z,93822.78
2023-03-26T18:05:42.635Z,93833.88
2023-03-26T18:08:09.084Z,93837.50
2023-03-26T18:10:35.622Z,93831.13
2023-03-26T18:13:05.119Z,93813.66
2023-03-26T18:15:37.085Z,93812.59
2023-03-26T18:18:03.588Z,93813.16
2023-03-26T18:20:30.005Z,93814.53
2023-03-26T18:22:56.991Z,93826.09
2023-03-26T18:25:23.487Z,93821.94
2023-03-26T18:27:50.000Z,93820.75
2023-03-26T18:30:19.167Z,93814.03
2023-03-26T18:32:45.719Z,93812.03
2023-03-26T18:35:12.653Z,93804.28
2023-03-26T18:37:39.549Z,93797.38
2023-03-26T18:40:06.099Z,93804.94
2023-03-26T18:42:32.814Z,93797.88
2023-03-26T18:45:01.147Z,93793.75
2023-03-26T18:47:31.888Z,93797.44
2023-03-26T18:50:03.078Z,93788.72
2023-03-26T18:52:29.743Z,93782.41
2023-03-26T18:54:57.043Z,93778.38
2023-03-26T18:57:24.575Z,93782.47
2023-03-26T18:59:57.449Z,93777.75
2023-03-26T19:02:24.012Z,93772.06
2023-03-26T19:04:50.547Z,93777.47
2023-03-26T19:07:19.057Z,93776.84
2023-03-26T19:09:46.512Z,93778.03
2023-03-26T19:12:12.970Z,93778.44
2023-03-26T19:14:39.430Z,93781.72
2023-03-26T19:17:05.885Z,93788.34
2023-03-26T19:19:32.307Z,93791.09
2023-03-26T19:21:59.656Z,93783.13
2023-03-26T19:24:26.381Z,93777.72
2023-03-26T19:26:53.602Z,93779.81
2023-03-26T19:29:29.215Z,93783.47
2023-03-26T19:31:58.096Z,93789.16
2023-03-26T19:35:07.535Z,93798.69
2023-03-26T19:46:00.165Z,93840.59
2023-03-26T19:48:45.595Z,93843.22
2023-03-26T19:51:16.193Z,93840.47
2023-03-26T19:53:42.541Z,93861.16
2023-03-26T19:56:08.961Z,93861.34
2023-03-26T19:58:35.926Z,93864.94
2023-03-26T20:01:02.380Z,93873.72
2023-03-26T20:03:29.905Z,93863.41
2023-03-26T20:05:56.602Z,93870.09
2023-03-26T20:08:23.098Z,93861.22
2023-03-26T20:10:49.474Z,93865.31
2023-03-26T20:13:15.862Z,93869.28
2023-03-26T20:15:42.441Z,93861.31
2023-03-26T20:18:09.342Z,93851.56
2023-03-26T20:20:35.818Z,93854.09
2023-03-26T20:23:10.320Z,93859.06
2023-03-26T20:25:36.711Z,93857.81
2023-03-26T20:28:05.633Z,93857.97
2023-03-26T20:30:37.895Z,93856.16
2023-03-26T20:33:12.521Z,93863.16
2023-03-26T20:35:40.027Z,93876.53
2023-03-26T20:38:07.631Z,93880.31
2023-03-26T20:40:34.531Z,93888.69
2023-03-26T20:43:00.944Z,93897.22
2023-03-26T21:02:23.711Z,93925.78
2023-03-26T21:13:20.765Z,93920.16
2023-03-26T21:15:47.242Z,93924.69
2023-03-26T21:18:13.836Z,93920.38
2023-03-26T21:20:41.257Z,93911.78
2023-03-26T21:23:07.695Z,93913.22
2023-03-26T21:25:36.459Z,93916.50
2023-03-26T21:28:02.812Z,93914.50
2023-03-26T21:30:33.467Z,93922.03
2023-03-26T21:32:59.858Z,93927.94
2023-03-26T21:35:26.557Z,93924.66
2023-03-26T21:37:53.650Z,93925.94
2023-03-26T21:40:20.029Z,93927.94
2023-03-26T21:42:46.362Z,93932.72
2023-03-26T21:45:12.689Z,93939.16
2023-03-26T21:47:41.370Z,93943.59
2023-03-26T21:50:08.184Z,93939.16
2023-03-26T21:52:34.530Z,93938.78
2023-03-26T21:55:01.567Z,93932.38
2023-03-26T21:57:31.247Z,93938.00
2023-03-26T21:59:57.717Z,93935.19
2023-03-26T22:02:31.361Z,93929.28
2023-03-26T22:04:57.773Z,93932.09
2023-03-26T22:07:24.223Z,93931.91
2023-03-26T22:09:50.553Z,93936.88
2023-03-26T22:12:17.135Z,93932.88
2023-03-26T22:14:44.715Z,93935.50
2023-03-26T22:17:13.637Z,93942.69
2023-03-26T22:19:40.001Z,93956.97
2023-03-26T22:22:06.385Z,93967.53
2023-03-26T22:24:32.879Z,93973.38
2023-03-26T22:26:59.343Z,93982.34
2023-03-26T22:29:25.714Z,93986.25
2023-03-26T22:31:52.490Z,93989.53
2023-03-26T22:34:19.055Z,93986.44
2023-03-26T22:36:45.429Z,93996.44
2023-03-26T22:39:11.855Z,93995.94
2023-03-26T22:41:38.182Z,94001.97
2023-03-26T22:44:16.948Z,94010.16
2023-03-26T22:46:45.900Z,94007.81
2023-03-26T22:49:12.349Z,94001.53
2023-03-26T22:51:38.818Z,93999.88
2023-03-26T22:54:08.315Z,94022.81
2023-03-26T22:56:34.662Z,94022.44
2023-03-26T22:59:01.152Z,94028.25
2023-03-26T23:01:28.061Z,94024.28
2023-03-26T23:03:54.423Z,94021.47
2023-03-26T23:06:20.902Z,94028.34
2023-03-26T23:08:50.655Z,94022.75
2023-03-26T23:11:18.428Z,94032.69
2023-03-26T23:13:44.997Z,94037.56
2023-03-26T23:16:12.953Z,94041.91
2023-03-26T23:18:39.608Z,94042.09
2023-03-26T23:21:06.015Z,94041.19
2023-03-26T23:23:38.517Z,94054.31
2023-03-26T23:26:05.031Z,94051.50
2023-03-26T23:28:31.441Z,94047.09
2023-03-26T23:31:00.367Z,94051.00
2023-03-26T23:33:26.726Z,94066.09
2023-03-26T23:35:53.724Z,94074.50
2023-03-26T23:38:20.434Z,94077.59
2023-03-26T23:40:57.470Z,94093.34
2023-03-26T23:43:24.124Z,94093.00
2023-03-26T23:45:51.429Z,94085.16
2023-03-26T23:48:17.854Z,94085.47
2023-03-26T23:50:44.250Z,94094.63
2023-03-26T23:53:10.821Z,94096.28
2023-03-26T23:55:37.310Z,94091.03
2023-03-26T23:58:03.656Z,94097.97
